Terminal Aerodrome Forecast
Issued by NWS

Home | Current Version | Previous Version | Text Only | Print | Product List | Glossary On
Versions: 1 2 3 4 5 6 7 8 9 10 11 12 13
062
FTUS44 KLZK 202333
TAFBPK
TAF
KBPK 202333Z 2100/2124 15007KT P6SM SCT250
     FM211500 13008G15KT P6SM SCT100 OVC250
     FM211800 13010G20KT P6SM VCSH SCT050 OVC250
     FM212200 12010G20KT P6SM VCTS SCT050CB BKN100 OVC250=

USA.gov is the U.S. government's official web portal to all federal, state and local government web resources and services.